Time;durP1;ratioP1;P1;durP2;ratioP2;P2;SDS_P1;SDS_P2;PMS_P1;PMS_P2;Temp;Humidity;BMP_temperature;BMP_pressure;BME280_temperature;BME280_humidity;BME280_pressure;Samples;Min_cycle;Max_cycle;Signal;HPM_P1;HPM_P2
2023/07/26 00:00:24;;;;;;;0.50;0.50;;;;;;;12.13;100.00;96470.09;29395;251;63005;-55
2023/07/26 00:00:55;;;;;;;0.50;0.50;;;;;;;12.12;100.00;96473.94;29395;223;63009;-55
2023/07/26 00:01:27;;;;;;;0.43;0.43;;;;;;;12.15;100.00;96478.72;29395;256;63004;-54
2023/07/26 00:01:58;;;;;;;0.50;0.50;;;;;;;12.15;100.00;96473.28;29395;211;63019;-61
2023/07/26 00:02:29;;;;;;;0.50;0.50;;;;;;;12.17;100.00;96471.06;29395;265;63004;-55
2023/07/26 00:03:00;;;;;;;0.45;0.45;;;;;;;12.15;100.00;96479.53;29394;218;64013;-56
2023/07/26 00:03:32;;;;;;;0.50;0.50;;;;;;;12.15;100.00;96473.28;29395;215;63004;-54
2023/07/26 00:04:04;;;;;;;0.50;0.50;;;;;;;12.19;100.00;96474.25;29395;245;63008;-54
2023/07/26 00:04:36;;;;;;;0.50;0.50;;;;;;;12.20;100.00;96471.22;29395;229;63005;-62
2023/07/26 00:05:08;;;;;;;0.50;0.50;;;;;;;12.20;100.00;96475.88;29395;239;63009;-55
2023/07/26 00:05:39;;;;;;;0.50;0.50;;;;;;;12.19;100.00;96474.25;29395;210;63005;-60
2023/07/26 00:06:11;;;;;;;0.50;0.50;;;;;;;12.18;100.00;96467.22;29395;235;63009;-54
2023/07/26 00:06:42;;;;;;;0.45;0.45;;;;;;;12.17;100.00;96474.56;29395;203;63005;-55
2023/07/26 00:07:13;;;;;;;0.50;0.50;;;;;;;12.17;100.00;96476.50;29395;266;63009;-54
2023/07/26 00:07:45;;;;;;;0.50;0.50;;;;;;;12.16;100.00;96472.16;29394;216;63005;-54
2023/07/26 00:08:16;;;;;;;0.45;0.45;;;;;;;12.16;100.00;96474.88;29394;251;64013;-54
2023/07/26 00:08:48;;;;;;;0.40;0.40;;;;;;;12.19;100.00;96471.53;29395;238;63004;-55
2023/07/26 00:09:19;;;;;;;0.40;0.40;;;;;;;12.17;100.00;96471.84;29395;221;63009;-54
2023/07/26 00:09:50;;;;;;;0.50;0.50;;;;;;;12.18;100.00;96472.66;29395;216;63004;-54
2023/07/26 00:10:22;;;;;;;0.47;0.47;;;;;;;12.16;100.00;96474.88;29395;242;63009;-54
2023/07/26 00:10:53;;;;;;;0.50;0.50;;;;;;;12.16;100.00;96474.88;29395;216;63004;-62
2023/07/26 00:11:28;;;;;;;0.50;0.50;;;;;;;12.15;100.00;96473.28;29395;223;63008;-54
2023/07/26 00:11:59;;;;;;;0.50;0.50;;;;;;;12.15;100.00;96473.28;29395;204;63008;-55
2023/07/26 00:12:31;;;;;;;0.50;0.50;;;;;;;12.15;100.00;96484.97;29394;207;64014;-54
2023/07/26 00:13:03;;;;;;;0.50;0.50;;;;;;;12.19;100.00;96482.41;29395;227;63005;-60
2023/07/26 00:13:34;;;;;;;0.50;0.50;;;;;;;12.25;100.00;96478.44;29395;311;63009;-59
2023/07/26 00:14:06;;;;;;;0.50;0.50;;;;;;;12.26;100.00;96480.88;29395;262;63005;-54
2023/07/26 00:14:38;;;;;;;0.50;0.50;;;;;;;12.26;100.00;96471.91;29395;199;63009;-59
2023/07/26 00:15:10;;;;;;;0.50;0.50;;;;;;;12.27;100.00;96478.94;29395;212;63005;-54
2023/07/26 00:15:42;;;;;;;0.50;0.50;;;;;;;12.27;100.00;96476.22;29395;239;63009;-55
2023/07/26 00:16:13;;;;;;;0.50;0.50;;;;;;;12.26;100.00;96480.88;29395;225;63005;-54
2023/07/26 00:16:44;;;;;;;0.50;0.50;;;;;;;12.27;100.00;96482.47;29395;205;63009;-55
2023/07/26 00:17:16;;;;;;;0.50;0.50;;;;;;;12.28;100.00;96480.56;29395;246;63004;-55
2023/07/26 00:17:47;;;;;;;0.43;0.43;;;;;;;12.28;100.00;96477.84;29394;226;64013;-54
2023/07/26 00:18:18;;;;;;;0.40;0.40;;;;;;;12.27;100.00;96481.66;29395;277;63004;-54
2023/07/26 00:18:50;;;;;;;0.40;0.40;;;;;;;12.27;100.00;96481.66;29395;255;63008;-55
2023/07/26 00:19:23;;;;;;;0.50;0.50;;;;;;;12.26;100.00;96474.63;29395;225;63004;-54
2023/07/26 00:19:54;;;;;;;0.50;0.50;;;;;;;12.26;100.00;96480.06;29394;323;64014;-55
2023/07/26 00:20:26;;;;;;;0.50;0.50;;;;;;;12.26;100.00;96480.06;29395;236;63005;-54
2023/07/26 00:20:57;;;;;;;0.40;0.40;;;;;;;12.27;100.00;96481.66;29395;240;63009;-55
2023/07/26 00:21:28;;;;;;;0.50;0.50;;;;;;;12.28;100.00;96481.34;29395;256;63005;-55
2023/07/26 00:22:00;;;;;;;0.50;0.50;;;;;;;12.27;100.00;96476.22;29395;222;63009;-54
2023/07/26 00:22:34;;;;;;;0.50;0.50;;;;;;;12.29;100.00;96479.44;29395;216;63005;-53
2023/07/26 00:23:06;;;;;;;0.50;0.50;;;;;;;12.30;100.00;96478.31;29395;205;63009;-54
2023/07/26 00:23:37;;;;;;;0.50;0.50;;;;;;;12.28;100.00;96478.63;29396;202;63005;-54
2023/07/26 00:24:08;;;;;;;0.40;0.40;;;;;;;12.28;100.00;96477.84;29395;199;63009;-55
2023/07/26 00:24:40;;;;;;;0.50;0.50;;;;;;;12.27;100.00;96481.66;29395;242;63004;-54
2023/07/26 00:25:11;;;;;;;0.40;0.40;;;;;;;12.26;100.00;96480.06;29394;199;64013;-55
2023/07/26 00:25:42;;;;;;;0.50;0.50;;;;;;;12.26;100.00;96483.59;29395;198;63004;-55
2023/07/26 00:26:13;;;;;;;0.50;0.50;;;;;;;12.28;100.00;96477.84;29395;210;63009;-55
2023/07/26 00:26:45;;;;;;;0.50;0.50;;;;;;;12.28;100.00;96477.84;29395;210;63009;-55
2023/07/26 00:27:17;;;;;;;0.50;0.50;;;;;;;12.27;100.00;96478.94;29395;255;63009;-55
2023/07/26 00:27:51;;;;;;;0.50;0.50;;;;;;;12.26;100.00;96480.06;29395;249;63005;-54
2023/07/26 00:28:23;;;;;;;0.50;0.50;;;;;;;12.24;100.00;96477.66;29395;242;63013;-61
2023/07/26 00:28:54;;;;;;;0.40;0.40;;;;;;;12.24;100.00;96483.09;29395;227;63005;-56
2023/07/26 00:29:25;;;;;;;0.50;0.50;;;;;;;12.24;100.00;96482.28;29395;235;63009;-55
2023/07/26 00:29:56;;;;;;;0.47;0.47;;;;;;;12.22;100.00;96479.87;29395;196;63019;-54
2023/07/26 00:30:28;;;;;;;0.50;0.50;;;;;;;12.23;100.00;96483.41;29394;234;64013;-56
2023/07/26 00:31:03;;;;;;;0.50;0.50;;;;;;;12.22;100.00;96479.06;29395;230;63005;-56
2023/07/26 00:31:34;;;;;;;0.47;0.47;;;;;;;12.20;100.00;96481.31;29395;218;63009;-55
2023/07/26 00:32:06;;;;;;;0.50;0.50;;;;;;;12.19;100.00;96485.13;29395;221;63000;-60
2023/07/26 00:32:37;;;;;;;0.50;0.50;;;;;;;12.21;100.00;96482.91;29395;214;63009;-61
2023/07/26 00:33:09;;;;;;;0.50;0.50;;;;;;;12.21;100.00;96480.19;29395;242;63004;-57
2023/07/26 00:33:40;;;;;;;0.40;0.40;;;;;;;12.22;100.00;96485.31;29395;207;63009;-54
2023/07/26 00:34:12;;;;;;;0.47;0.47;;;;;;;12.24;100.00;96482.28;29395;228;63004;-58
2023/07/26 00:34:44;;;;;;;0.40;0.40;;;;;;;12.23;100.00;96480.69;29395;235;63008;-55
2023/07/26 00:35:20;;;;;;;0.50;0.50;;;;;;;12.24;100.00;96487.72;29395;211;63005;-54
2023/07/26 00:35:52;;;;;;;0.50;0.50;;;;;;;12.25;100.00;96489.34;29394;225;64014;-54
2023/07/26 00:36:23;;;;;;;0.40;0.40;;;;;;;12.24;100.00;96485.81;29395;200;63005;-54
2023/07/26 00:36:56;;;;;;;0.40;0.40;;;;;;;12.25;100.00;96483.91;29395;204;63009;-55
2023/07/26 00:37:27;;;;;;;0.50;0.50;;;;;;;12.27;100.00;96487.09;29395;224;63005;-55
2023/07/26 00:37:58;;;;;;;0.50;0.50;;;;;;;12.26;100.00;96480.06;29395;205;63009;-54
2023/07/26 00:38:29;;;;;;;0.45;0.45;;;;;;;12.24;100.00;96487.72;29395;249;63005;-55
2023/07/26 00:39:03;;;;;;;0.50;0.50;;;;;;;12.25;100.00;96489.34;29394;227;64009;-54
2023/07/26 00:39:34;;;;;;;0.50;0.50;;;;;;;12.25;100.00;96486.63;29395;264;63004;-54
2023/07/26 00:40:06;;;;;;;0.50;0.50;;;;;;;12.25;100.00;96483.91;29394;251;64009;-55
2023/07/26 00:40:38;;;;;;;0.50;0.50;;;;;;;12.27;100.00;96481.66;29395;323;63003;-55
2023/07/26 00:41:09;;;;;;;0.50;0.50;;;;;;;12.28;100.00;96486.00;29394;213;64013;-55
2023/07/26 00:41:41;;;;;;;0.47;0.47;;;;;;;12.30;100.00;96491.91;29395;198;63004;-55
2023/07/26 00:42:17;;;;;;;0.50;0.50;;;;;;;12.29;100.00;96490.31;29395;219;63008;-56
2023/07/26 00:42:48;;;;;;;0.50;0.50;;;;;;;12.29;100.00;96487.59;29395;238;63005;-54
2023/07/26 00:43:19;;;;;;;0.50;0.50;;;;;;;12.30;100.00;96486.47;29394;232;64014;-55
2023/07/26 00:43:51;;;;;;;0.50;0.50;;;;;;;12.29;100.00;96485.69;29395;243;63009;-59
2023/07/26 00:44:23;;;;;;;0.50;0.50;;;;;;;12.29;100.00;96487.59;29395;217;63009;-55
2023/07/26 00:44:54;;;;;;;0.50;0.50;;;;;;;12.30;100.00;96491.91;29395;203;63005;-55
2023/07/26 00:45:29;;;;;;;0.50;0.50;;;;;;;12.27;100.00;96487.09;29394;233;64013;-55
2023/07/26 00:46:01;;;;;;;0.50;0.50;;;;;;;12.30;100.00;96491.91;29394;232;64009;-54
2023/07/26 00:46:33;;;;;;;0.50;0.50;;;;;;;12.29;100.00;96490.31;29395;222;63009;-60
2023/07/26 00:47:05;;;;;;;0.50;0.50;;;;;;;12.33;100.00;96494.03;29395;251;63004;-55
2023/07/26 00:47:37;;;;;;;0.50;0.50;;;;;;;12.34;100.00;96487.47;29395;248;63009;-55
2023/07/26 00:48:10;;;;;;;0.50;0.50;;;;;;;12.35;100.00;96494.50;29395;245;63004;-60
2023/07/26 00:48:43;;;;;;;0.50;0.50;;;;;;;12.37;100.00;96490.38;29394;230;64013;-55
2023/07/26 00:49:15;;;;;;;0.50;0.50;;;;;;;12.36;100.00;96490.69;29395;230;63005;-55
2023/07/26 00:49:47;;;;;;;0.50;0.50;;;;;;;12.34;100.00;96487.47;29395;204;63009;-54
2023/07/26 00:50:20;;;;;;;0.50;0.50;;;;;;;12.32;100.00;96485.06;29395;210;63005;-54
2023/07/26 00:50:53;;;;;;;0.40;0.40;;;;;;;12.30;100.00;96498.16;29395;247;63009;-54
2023/07/26 00:51:26;;;;;;;0.50;0.50;;;;;;;12.30;100.00;96491.91;29394;202;64009;-54
2023/07/26 00:51:58;;;;;;;0.50;0.50;;;;;;;12.29;100.00;96495.75;29395;221;63009;-55
2023/07/26 00:52:29;;;;;;;0.50;0.50;;;;;;;12.27;100.00;96498.00;29395;295;63010;-54
2023/07/26 00:53:02;;;;;;;0.50;0.50;;;;;;;12.26;100.00;96490.94;29395;197;63009;-55
2023/07/26 00:53:34;;;;;;;0.50;0.50;;;;;;;12.25;100.00;96494.78;29395;238;63004;-55
2023/07/26 00:54:07;;;;;;;0.50;0.50;;;;;;;12.26;100.00;96496.38;29395;250;63009;-55
2023/07/26 00:54:39;;;;;;;0.50;0.50;;;;;;;12.25;100.00;96494.78;29395;203;63004;-55
2023/07/26 00:55:11;;;;;;;0.50;0.50;;;;;;;12.25;100.00;96497.50;29395;220;63009;-56
2023/07/26 00:55:45;;;;;;;0.50;0.50;;;;;;;12.25;100.00;96494.78;29395;262;63012;-54
2023/07/26 00:56:17;;;;;;;0.50;0.50;;;;;;;12.24;100.00;96495.87;29394;196;64013;-54
2023/07/26 00:56:48;;;;;;;0.40;0.40;;;;;;;12.23;100.00;96497.81;29395;243;63009;-54
2023/07/26 00:57:19;;;;;;;0.50;0.50;;;;;;;12.22;100.00;96495.41;29394;198;64009;-55
2023/07/26 00:57:52;;;;;;;0.50;0.50;;;;;;;12.22;100.00;96495.41;29395;224;63005;-55
2023/07/26 00:58:24;;;;;;;0.50;0.50;;;;;;;12.22;100.00;96493.47;29395;204;63009;-54
2023/07/26 00:58:56;;;;;;;0.50;0.50;;;;;;;12.21;100.00;96496.50;29395;240;63005;-54
2023/07/26 00:59:27;;;;;;;0.50;0.50;;;;;;;12.24;100.00;96498.62;29395;202;63009;-55
2023/07/26 00:59:59;;;;;;;0.50;0.50;;;;;;;12.25;100.00;96500.22;29394;197;64022;-55
2023/07/26 01:00:31;;;;;;;0.50;0.50;;;;;;;12.26;100.00;96499.91;29395;216;63009;-54
2023/07/26 01:01:03;;;;;;;0.40;0.40;;;;;;;12.30;100.00;96497.38;29395;208;63004;-55
2023/07/26 01:01:34;;;;;;;0.50;0.50;;;;;;;12.30;100.00;96497.38;29395;225;63009;-54
2023/07/26 01:02:06;;;;;;;0.40;0.40;;;;;;;12.31;100.00;96498.97;29395;219;63004;-56
2023/07/26 01:02:37;;;;;;;0.50;0.50;;;;;;;12.30;100.00;96498.16;29395;208;63009;-54
2023/07/26 01:03:12;;;;;;;0.50;0.50;;;;;;;12.30;100.00;96503.59;29395;223;63004;-55
2023/07/26 01:03:44;;;;;;;0.50;0.50;;;;;;;12.28;100.00;96505.03;29395;233;63008;-55
2023/07/26 01:04:15;;;;;;;0.50;0.50;;;;;;;12.27;100.00;96504.22;29395;271;63005;-56
2023/07/26 01:04:47;;;;;;;0.50;0.50;;;;;;;12.27;100.00;96508.88;29394;218;64014;-55
2023/07/26 01:05:24;;;;;;;0.50;0.50;;;;;;;12.26;100.00;96507.25;29395;283;63005;-60
2023/07/26 01:06:35;;;;;;;0.40;0.40;;;;;;;12.25;100.00;96516.53;29395;214;63009;-55
2023/07/26 01:07:37;;;;;;;0.50;0.50;;;;;;;12.25;100.00;96505.66;29395;209;63005;-55
2023/07/26 01:08:40;;;;;;;0.55;0.55;;;;;;;12.26;100.00;96518.16;29395;213;63009;-55
2023/07/26 01:09:48;;;;;;;0.50;0.50;;;;;;;12.25;100.00;96511.09;29395;199;63004;-54
2023/07/26 01:10:58;;;;;;;0.50;0.50;;;;;;;12.22;100.00;96520.69;29394;266;64013;-54
2023/07/26 01:11:43;;;;;;;0.50;0.50;;;;;;;12.20;100.00;96519.38;29395;202;63004;-54
2023/07/26 01:12:19;;;;;;;0.47;0.47;;;;;;;12.20;100.00;96513.94;29395;246;63009;-55
2023/07/26 01:13:01;;;;;;;0.50;0.50;;;;;;;12.18;100.00;96511.53;29395;248;63005;-55
2023/07/26 01:14:07;;;;;;;0.50;0.50;;;;;;;12.19;100.00;96523.22;29395;220;63009;-55
2023/07/26 01:15:06;;;;;;;0.50;0.50;;;;;;;12.21;100.00;96518.28;29394;197;64009;-54
2023/07/26 01:15:58;;;;;;;0.50;0.50;;;;;;;12.21;100.00;96519.06;29395;293;63009;-55
2023/07/26 01:16:30;;;;;;;;;;;;;;;12.19;100.00;96523.22;29996;983;6000;-55
2023/07/26 01:17:04;;;;;;;0.50;0.50;;;;;;;12.18;100.00;96521.62;29399;258;64009;-54
2023/07/26 01:17:35;;;;;;;0.50;0.50;;;;;;;12.17;100.00;96522.72;29395;211;63009;-55
2023/07/26 01:18:16;;;;;;;0.50;0.50;;;;;;;12.15;100.00;96531.19;29395;254;63007;-55
2023/07/26 01:18:48;;;;;;;0.40;0.40;;;;;;;12.15;100.00;96528.47;29395;202;63008;-54
2023/07/26 01:19:19;;;;;;;0.50;0.50;;;;;;;12.14;100.00;96535.03;29394;218;64009;-55
2023/07/26 01:19:51;;;;;;;0.50;0.50;;;;;;;12.13;100.00;96527.22;29395;213;63009;-61
2023/07/26 01:20:22;;;;;;;0.50;0.50;;;;;;;12.13;100.00;96535.38;29395;213;63005;-59
2023/07/26 01:20:53;;;;;;;0.50;0.50;;;;;;;12.12;100.00;96533.75;29395;212;63009;-55
2023/07/26 01:21:25;;;;;;;0.50;0.50;;;;;;;12.11;100.00;96532.16;29395;227;63017;-55
2023/07/26 01:21:56;;;;;;;0.50;0.50;;;;;;;12.11;100.00;96532.16;29394;209;64013;-60
2023/07/26 01:22:28;;;;;;;0.50;0.50;;;;;;;12.09;100.00;96532.47;29395;209;63005;-55
2023/07/26 01:22:59;;;;;;;0.50;0.50;;;;;;;12.10;100.00;96536.00;29395;268;63009;-55
2023/07/26 01:23:31;;;;;;;0.50;0.50;;;;;;;12.08;100.00;96522.69;29395;205;63004;-55
2023/07/26 01:24:02;;;;;;;0.50;0.50;;;;;;;12.07;100.00;96530.06;29395;198;63019;-55
2023/07/26 01:24:33;;;;;;;0.50;0.50;;;;;;;12.07;100.00;96532.78;29395;287;63004;-59
2023/07/26 01:25:06;;;;;;;0.50;0.50;;;;;;;12.08;100.00;96533.56;29395;241;63009;-59
2023/07/26 01:25:37;;;;;;;0.50;0.50;;;;;;;12.08;100.00;96531.66;29395;327;63004;-60
2023/07/26 01:26:08;;;;;;;0.50;0.50;;;;;;;12.06;100.00;96536.59;29395;204;63008;-55
2023/07/26 01:26:39;;;;;;;0.50;0.50;;;;;;;12.07;100.00;96532.78;29395;212;63004;-61
2023/07/26 01:27:11;;;;;;;0.50;0.50;;;;;;;12.06;100.00;96531.16;29394;208;64014;-55
2023/07/26 01:27:42;;;;;;;0.50;0.50;;;;;;;12.06;100.00;96528.44;29395;214;63005;-53
2023/07/26 01:28:13;;;;;;;0.50;0.50;;;;;;;12.06;100.00;96528.44;29395;238;63009;-55
2023/07/26 01:28:44;;;;;;;0.50;0.50;;;;;;;12.06;100.00;96536.59;29395;232;63005;-58
2023/07/26 01:29:16;;;;;;;0.50;0.50;;;;;;;12.07;100.00;96537.41;29395;198;63009;-53
2023/07/26 01:29:51;;;;;;;0.50;0.50;;;;;;;12.04;100.00;96536.12;29395;239;63005;-55
2023/07/26 01:30:23;;;;;;;0.50;0.50;;;;;;;12.03;100.00;96534.50;29394;227;64013;-55
2023/07/26 01:30:58;;;;;;;0.50;0.50;;;;;;;12.04;100.00;96533.41;29395;212;63005;-55
2023/07/26 01:31:30;;;;;;;0.50;0.50;;;;;;;12.04;100.00;96533.41;29395;236;63021;-56
2023/07/26 01:32:02;;;;;;;0.60;0.60;;;;;;;12.04;100.00;96533.41;29395;234;63004;-56
2023/07/26 01:32:35;;;;;;;0.50;0.50;;;;;;;12.05;100.00;96524.13;29395;202;63009;-55
2023/07/26 01:33:08;;;;;;;0.50;0.50;;;;;;;12.05;100.00;96524.13;29395;246;63004;-55
2023/07/26 01:33:41;;;;;;;0.50;0.50;;;;;;;12.05;100.00;96535.00;29396;221;63025;-55
2023/07/26 01:34:13;;;;;;;0.50;0.50;;;;;;;12.05;100.00;96526.84;29395;196;63004;-55
2023/07/26 01:34:44;;;;;;;0.50;0.50;;;;;;;12.04;100.00;96527.94;29395;199;63016;-55
2023/07/26 01:35:16;;;;;;;0.50;0.50;;;;;;;12.03;100.00;96520.91;29394;239;64009;-61
2023/07/26 01:35:47;;;;;;;0.50;0.50;;;;;;;12.03;100.00;96523.63;29395;224;63009;-61
2023/07/26 01:36:29;;;;;;;0.50;0.50;;;;;;;12.02;100.00;96530.19;29395;238;63005;-55
2023/07/26 01:37:01;;;;;;;0.50;0.50;;;;;;;12.02;100.00;96526.66;29395;240;63024;-55
2023/07/26 01:37:33;;;;;;;0.50;0.50;;;;;;;12.04;100.00;96527.16;29394;243;64009;-55
2023/07/26 01:38:06;;;;;;;0.50;0.50;;;;;;;12.01;100.00;96528.56;29395;227;63009;-55
2023/07/26 01:38:38;;;;;;;0.50;0.50;;;;;;;11.99;100.00;96536.25;29395;221;63004;-55
2023/07/26 01:39:10;;;;;;;0.50;0.50;;;;;;;11.96;100.00;96525.97;29395;204;63009;-54
2023/07/26 01:39:44;;;;;;;0.50;0.50;;;;;;;11.95;100.00;96524.38;29394;203;64004;-54
2023/07/26 01:40:16;;;;;;;0.40;0.40;;;;;;;11.93;100.00;96523.88;29395;199;63008;-55
2023/07/26 01:40:49;;;;;;;0.50;0.50;;;;;;;11.93;100.00;96520.34;29395;220;63004;-54
2023/07/26 01:41:22;;;;;;;0.43;0.43;;;;;;;11.93;100.00;96532.03;29395;217;63008;-61
2023/07/26 01:41:54;;;;;;;0.47;0.47;;;;;;;11.93;100.00;96532.03;29395;208;63005;-55
2023/07/26 01:42:26;;;;;;;0.50;0.50;;;;;;;11.91;100.00;96528.03;29394;203;64014;-55
2023/07/26 01:42:58;;;;;;;0.50;0.50;;;;;;;11.91;100.00;96531.53;29395;197;63005;-60
2023/07/26 01:43:29;;;;;;;0.50;0.50;;;;;;;11.90;100.00;96527.22;29395;210;63016;-55
2023/07/26 01:44:00;;;;;;;0.50;0.50;;;;;;;11.89;100.00;96533.75;29395;232;63005;-54
2023/07/26 01:44:38;;;;;;;0.50;0.50;;;;;;;11.89;100.00;96532.97;29395;251;63009;-55
2023/07/26 01:45:09;;;;;;;0.50;0.50;;;;;;;11.87;100.00;96530.56;29394;205;64009;-56
2023/07/26 01:45:41;;;;;;;0.50;0.50;;;;;;;11.85;100.00;96530.06;29395;202;63009;-55
2023/07/26 01:46:13;;;;;;;0.50;0.50;;;;;;;11.85;100.00;96534.69;29395;210;63004;-56
2023/07/26 01:46:45;;;;;;;1.23;1.23;;;;;;;11.84;100.00;96533.87;29395;202;63009;-61
2023/07/26 01:47:16;;;;;;;0.50;0.50;;;;;;;11.85;100.00;96532.78;29395;204;63004;-56
2023/07/26 01:47:49;;;;;;;0.50;0.50;;;;;;;11.85;100.00;96535.50;29395;215;63008;-60
2023/07/26 01:48:20;;;;;;;0.50;0.50;;;;;;;11.84;100.00;96531.16;29395;202;63004;-56
2023/07/26 01:48:51;;;;;;;0.50;0.50;;;;;;;11.85;100.00;96534.69;29395;219;63020;-55
2023/07/26 01:49:23;;;;;;;0.93;0.93;;;;;;;11.86;100.00;96531.66;29394;242;64009;-56
2023/07/26 01:49:54;;;;;;;0.50;0.50;;;;;;;11.85;100.00;96529.25;29395;291;63009;-60
2023/07/26 01:50:26;;;;;;;0.50;0.50;;;;;;;11.83;100.00;96532.28;29395;211;63005;-57
2023/07/26 01:50:57;;;;;;;0.40;0.40;;;;;;;11.83;100.00;96532.28;29394;265;64013;-55
2023/07/26 01:51:28;;;;;;;0.50;0.50;;;;;;;11.83;100.00;96531.47;29395;230;63005;-57
2023/07/26 01:51:59;;;;;;;0.50;0.50;;;;;;;11.81;100.00;96531.78;29395;229;63009;-56
2023/07/26 01:52:36;;;;;;;0.50;0.50;;;;;;;11.81;100.00;96522.81;29394;198;64009;-61
2023/07/26 01:53:07;;;;;;;0.50;0.50;;;;;;;11.82;100.00;96536.09;29395;269;63009;-55
2023/07/26 01:53:40;;;;;;;0.50;0.50;;;;;;;11.82;100.00;96527.94;29395;302;63008;-56
2023/07/26 01:54:12;;;;;;;0.50;0.50;;;;;;;11.81;100.00;96529.06;29395;247;63009;-56
2023/07/26 01:54:52;;;;;;;0.50;0.50;;;;;;;11.79;100.00;96528.56;29395;213;63004;-55
2023/07/26 01:55:24;;;;;;;0.50;0.50;;;;;;;11.80;100.00;96532.91;29377;202;125017;-55
2023/07/26 01:55:59;;;;;;;0.40;0.40;;;;;;;11.77;100.00;96528.09;29373;295;63000;-56
2023/07/26 01:56:30;;;;;;;0.40;0.40;;;;;;;11.79;100.00;96531.28;29395;206;63005;-60
2023/07/26 01:57:04;;;;;;;0.50;0.50;;;;;;;11.80;100.00;96532.09;29394;262;64009;-61
2023/07/26 01:57:35;;;;;;;0.50;0.50;;;;;;;11.80;100.00;96523.94;29395;203;63009;-56
2023/07/26 01:58:07;;;;;;;0.50;0.50;;;;;;;11.79;100.00;96531.28;29395;349;63005;-56
2023/07/26 01:58:43;;;;;;;0.50;0.50;;;;;;;11.79;100.00;96525.84;29395;196;63009;-62
2023/07/26 01:59:17;;;;;;;0.50;0.50;;;;;;;11.79;100.00;96528.56;29395;199;63010;-56
2023/07/26 02:00:00;;;;;;;0.50;0.50;;;;;;;11.77;100.00;96536.25;29395;205;63009;-61
2023/07/26 02:00:34;;;;;;;0.50;0.50;;;;;;;11.73;100.00;96532.50;29395;224;63010;-55
2023/07/26 02:01:07;;;;;;;0.50;0.50;;;;;;;11.75;100.00;96538.44;29394;206;64013;-61
2023/07/26 02:01:39;;;;;;;0.50;0.50;;;;;;;11.73;100.00;96533.31;29395;252;63004;-55
2023/07/26 02:02:10;;;;;;;0.40;0.40;;;;;;;11.75;100.00;96530.28;29395;197;63009;-55
2023/07/26 02:02:41;;;;;;;0.50;0.50;;;;;;;11.76;100.00;96529.19;29395;215;63004;-56
2023/07/26 02:03:13;;;;;;;0.45;0.45;;;;;;;11.74;100.00;96532.22;29395;218;63008;-55
2023/07/26 02:03:46;;;;;;;0.40;0.40;;;;;;;11.74;100.00;96539.56;29395;244;63005;-55
2023/07/26 02:04:17;;;;;;;0.50;0.50;;;;;;;11.75;100.00;96541.97;29395;261;63009;-56
2023/07/26 02:04:48;;;;;;;0.50;0.50;;;;;;;11.75;100.00;96535.72;29394;233;64009;-55
2023/07/26 02:05:20;;;;;;;0.50;0.50;;;;;;;11.75;100.00;96538.44;29394;218;64014;-60
2023/07/26 02:05:51;;;;;;;0.40;0.40;;;;;;;11.77;100.00;96538.97;29395;211;63005;-60
2023/07/26 02:06:22;;;;;;;0.50;0.50;;;;;;;11.76;100.00;96534.63;29395;210;63009;-56
2023/07/26 02:06:53;;;;;;;0.50;0.50;;;;;;;11.76;100.00;96534.63;29395;215;63005;-60
2023/07/26 02:07:25;;;;;;;0.50;0.50;;;;;;;11.77;100.00;96535.44;29395;207;63009;-55
2023/07/26 02:07:56;;;;;;;0.40;0.40;;;;;;;11.78;100.00;96540.59;29395;219;63004;-53
2023/07/26 02:08:28;;;;;;;0.50;0.50;;;;;;;11.79;100.00;96535.91;29395;214;63009;-55
2023/07/26 02:08:59;;;;;;;0.50;0.50;;;;;;;11.77;100.00;96538.97;29395;226;63004;-55
2023/07/26 02:09:31;;;;;;;0.50;0.50;;;;;;;11.76;100.00;96540.06;29395;215;63009;-55
2023/07/26 02:10:02;;;;;;;0.40;0.40;;;;;;;11.77;100.00;96535.44;29395;202;63004;-60
2023/07/26 02:10:34;;;;;;;0.50;0.50;;;;;;;11.74;100.00;96539.56;29394;202;64013;-56
2023/07/26 02:11:06;;;;;;;0.50;0.50;;;;;;;11.73;100.00;96535.22;29395;212;63004;-56
2023/07/26 02:11:38;;;;;;;0.50;0.50;;;;;;;11.74;100.00;96539.56;29395;216;63015;-54
2023/07/26 02:12:12;;;;;;;0.50;0.50;;;;;;;11.75;100.00;96541.16;29395;225;63005;-55
2023/07/26 02:12:44;;;;;;;0.50;0.50;;;;;;;11.74;100.00;96534.94;29395;205;63019;-54
2023/07/26 02:13:15;;;;;;;0.50;0.50;;;;;;;11.74;100.00;96534.94;29395;207;63005;-53
2023/07/26 02:13:46;;;;;;;0.50;0.50;;;;;;;11.74;100.00;96539.56;29395;246;63012;-54
2023/07/26 02:14:18;;;;;;;0.50;0.50;;;;;;;11.73;100.00;96538.75;29395;213;63005;-55
2023/07/26 02:14:49;;;;;;;0.50;0.50;;;;;;;11.73;100.00;96537.94;29395;263;63009;-55
2023/07/26 02:15:21;;;;;;;0.50;0.50;;;;;;;11.72;100.00;96541.78;29395;241;63005;-54
2023/07/26 02:15:53;;;;;;;0.40;0.40;;;;;;;11.73;100.00;96540.66;29394;204;64013;-54
2023/07/26 02:16:24;;;;;;;0.50;0.50;;;;;;;11.72;100.00;96541.78;29395;197;63004;-54
2023/07/26 02:16:57;;;;;;;0.50;0.50;;;;;;;11.72;100.00;96536.34;29395;202;63009;-54
2023/07/26 02:17:28;;;;;;;0.50;0.50;;;;;;;11.72;100.00;96536.34;29395;279;63004;-54
2023/07/26 02:18:00;;;;;;;0.50;0.50;;;;;;;11.71;100.00;96540.16;29395;248;63008;-54
2023/07/26 02:18:32;;;;;;;0.50;0.50;;;;;;;11.72;100.00;96547.22;29395;201;63010;-54
2023/07/26 02:19:04;;;;;;;0.50;0.50;;;;;;;11.73;100.00;96548.81;29395;249;63009;-57
2023/07/26 02:19:35;;;;;;;0.50;0.50;;;;;;;11.72;100.00;96548.03;29395;211;63005;-54
2023/07/26 02:20:08;;;;;;;0.50;0.50;;;;;;;11.74;100.00;96545.00;29395;200;63009;-54
2023/07/26 02:20:42;;;;;;;0.40;0.40;;;;;;;11.73;100.00;96554.25;29395;221;63005;-61
2023/07/26 02:21:13;;;;;;;0.50;0.50;;;;;;;11.71;100.00;96549.13;29394;212;64013;-54
2023/07/26 02:21:45;;;;;;;0.50;0.50;;;;;;;11.72;100.00;96548.03;29395;210;63005;-54
2023/07/26 02:22:16;;;;;;;0.45;0.45;;;;;;;11.71;100.00;96549.13;29395;223;63009;-54
2023/07/26 02:22:48;;;;;;;0.50;0.50;;;;;;;11.72;100.00;96545.31;29395;205;63005;-55
2023/07/26 02:23:19;;;;;;;0.50;0.50;;;;;;;11.72;100.00;96547.22;29395;196;63009;-54
2023/07/26 02:23:50;;;;;;;0.50;0.50;;;;;;;11.75;100.00;96549.31;29395;239;63004;-54
2023/07/26 02:24:23;;;;;;;0.50;0.50;;;;;;;11.77;100.00;96549.84;29395;196;63009;-55
2023/07/26 02:24:54;;;;;;;0.50;0.50;;;;;;;11.77;100.00;96552.56;29395;216;63004;-54
2023/07/26 02:25:26;;;;;;;0.50;0.50;;;;;;;11.78;100.00;96543.28;29394;196;64013;-54
2023/07/26 02:25:57;;;;;;;0.50;0.50;;;;;;;11.78;100.00;96551.44;29395;201;63012;-54
2023/07/26 02:26:28;;;;;;;0.50;0.50;;;;;;;11.78;100.00;96551.44;29395;208;63009;-54
2023/07/26 02:26:59;;;;;;;0.50;0.50;;;;;;;11.80;100.00;96548.41;29395;233;63005;-54
2023/07/26 02:27:30;;;;;;;0.50;0.50;;;;;;;11.79;100.00;96547.59;29395;211;63009;-54
2023/07/26 02:28:02;;;;;;;0.50;0.50;;;;;;;11.80;100.00;96543.75;29395;197;63005;-54
2023/07/26 02:28:35;;;;;;;0.50;0.50;;;;;;;11.80;100.00;96542.97;29395;197;63018;-54
2023/07/26 02:29:06;;;;;;;0.50;0.50;;;;;;;11.79;100.00;96547.59;29394;229;64009;-54
2023/07/26 02:29:37;;;;;;;0.50;0.50;;;;;;;11.82;100.00;96546.19;29395;197;63009;-54
2023/07/26 02:30:09;;;;;;;0.50;0.50;;;;;;;11.83;100.00;96545.06;29395;233;63005;-53
2023/07/26 02:30:41;;;;;;;0.50;0.50;;;;;;;11.84;100.00;96547.47;29395;267;63009;-55
2023/07/26 02:31:13;;;;;;;0.47;0.47;;;;;;;11.84;100.00;96539.31;29394;208;64009;-55
2023/07/26 02:31:44;;;;;;;0.50;0.50;;;;;;;11.84;100.00;96541.22;29395;220;63009;-54
2023/07/26 02:32:15;;;;;;;0.50;0.50;;;;;;;11.87;100.00;96543.34;29395;214;63004;-54
2023/07/26 02:32:46;;;;;;;0.47;0.47;;;;;;;11.89;100.00;96541.91;29395;261;63009;-55
2023/07/26 02:33:18;;;;;;;0.50;0.50;;;;;;;11.89;100.00;96550.06;29395;209;63004;-55
2023/07/26 02:33:49;;;;;;;0.50;0.50;;;;;;;11.91;100.00;96545.12;29395;224;63008;-54
2023/07/26 02:34:20;;;;;;;0.50;0.50;;;;;;;11.91;100.00;96550.56;29395;231;63009;-54
2023/07/26 02:34:51;;;;;;;0.50;0.50;;;;;;;11.92;100.00;96554.91;29395;292;63009;-54
2023/07/26 02:35:23;;;;;;;0.50;0.50;;;;;;;11.92;100.00;96545.94;29395;229;63005;-54
2023/07/26 02:35:59;;;;;;;0.50;0.50;;;;;;;11.95;100.00;96545.31;29395;275;63009;-53